Time;durP1;ratioP1;P1;durP2;ratioP2;P2;SDS_P1;SDS_P2;PMS_P1;PMS_P2;Temp;Humidity;BMP_temperature;BMP_pressure;BME280_temperature;BME280_humidity;BME280_pressure;Samples;Min_cycle;Max_cycle;Signal;HPM_P1;HPM_P2
2022/04/26 03:36:37;;;;;;;7.10;5.03;;;9.90;1.00;;;;;;5115788;28;20175;-72
2022/04/26 03:39:03;;;;;;;8.43;5.00;;;9.90;1.00;;;;;;5115776;28;20175;-72
2022/04/26 03:41:28;;;;;;;4.80;4.40;;;9.90;1.00;;;;;;5114895;28;20649;-72
2022/04/26 03:43:54;;;;;;;7.37;5.17;;;9.80;1.00;;;;;;5115252;28;20186;-72
2022/04/26 03:46:19;;;;;;;6.60;4.63;;;9.70;1.00;;;;;;5114746;28;20626;-72
2022/04/26 03:48:45;;;;;;;5.40;4.87;;;9.60;1.00;;;;;;5115362;28;20171;-72
2022/04/26 03:51:10;;;;;;;7.80;4.50;;;9.80;1.00;;;;;;5114782;28;20171;-72
2022/04/26 03:53:36;;;;;;;4.97;4.47;;;9.90;1.00;;;;;;5114597;28;20308;-72
2022/04/26 03:56:02;;;;;;;5.00;4.50;;;9.90;1.00;;;;;;5115018;28;20462;-72
2022/04/26 03:58:28;;;;;;;7.77;4.90;;;9.90;1.00;;;;;;5114496;28;20219;-71
2022/04/26 04:00:54;;;;;;;5.30;4.40;;;9.90;1.00;;;;;;5114973;28;20179;-72
2022/04/26 04:03:20;;;;;;;4.97;4.30;;;10.00;1.00;;;;;;5114908;28;20606;-72
2022/04/26 04:05:45;;;;;;;5.23;4.73;;;10.00;1.00;;;;;;5114351;28;20696;-71
2022/04/26 04:08:11;;;;;;;4.70;4.03;;;10.00;1.00;;;;;;5114765;28;20694;-72
2022/04/26 04:10:37;;;;;;;13.87;5.07;;;10.00;1.00;;;;;;5113406;28;20183;-73
2022/04/26 04:13:02;;;;;;;8.40;4.57;;;9.90;1.00;;;;;;5114100;28;20224;-72
2022/04/26 04:15:28;;;;;;;4.53;4.13;;;9.80;1.00;;;;;;5114399;28;20175;-71
2022/04/26 04:17:53;;;;;;;5.17;4.13;;;9.80;1.00;;;;;;5114325;28;20248;-72
2022/04/26 04:20:19;;;;;;;4.73;4.27;;;9.70;1.00;;;;;;5114587;28;20182;-72
2022/04/26 04:22:48;;;;;;;5.40;4.90;;;9.60;1.00;;;;;;5113949;28;20243;-72
2022/04/26 04:25:15;;;;;;;5.67;4.90;;;9.70;1.00;;;;;;5114266;28;20253;-72
2022/04/26 04:27:41;;;;;;;6.37;4.67;;;9.60;1.00;;;;;;5114086;28;20239;-72
2022/04/26 04:30:08;;;;;;;6.10;4.83;;;9.70;1.00;;;;;;5113987;28;20175;-72
2022/04/26 04:32:34;;;;;;;6.70;4.93;;;9.70;1.00;;;;;;5113710;28;20172;-72
2022/04/26 04:34:59;;;;;;;7.57;5.40;;;9.80;1.00;;;;;;5114244;28;20248;-72
2022/04/26 04:37:25;;;;;;;6.90;4.80;;;9.80;1.00;;;;;;5113866;28;20532;-71
2022/04/26 04:39:51;;;;;;;8.63;5.10;;;9.80;1.00;;;;;;5113973;28;20212;-71
2022/04/26 04:42:16;;;;;;;5.63;5.00;;;9.70;1.00;;;;;;5113177;28;20177;-72
2022/04/26 04:44:42;;;;;;;8.93;5.23;;;9.60;1.00;;;;;;5113374;28;20250;-72
2022/04/26 04:47:08;;;;;;;7.27;5.07;;;9.70;1.00;;;;;;5113913;28;20175;-72
2022/04/26 04:49:33;;;;;;;6.53;4.97;;;9.80;1.00;;;;;;5113935;28;20176;-71
2022/04/26 04:51:59;;;;;;;5.67;5.03;;;9.70;1.00;;;;;;5113366;28;20170;-71
2022/04/26 04:54:24;;;;;;;7.70;5.10;;;9.70;1.00;;;;;;5113085;28;20246;-71
2022/04/26 04:56:50;;;;;;;7.50;5.30;;;9.70;1.00;;;;;;5113354;28;20223;-71
2022/04/26 04:59:16;;;;;;;7.17;5.43;;;9.70;1.00;;;;;;5112836;28;20197;-72
2022/04/26 05:01:42;;;;;;;5.47;4.97;;;9.70;1.00;;;;;;5113398;28;20224;-71
2022/04/26 05:04:08;;;;;;;6.13;4.97;;;9.50;1.00;;;;;;5113972;28;20175;-70
2022/04/26 05:06:33;;;;;;;7.47;5.13;;;9.60;1.00;;;;;;5113176;28;20195;-71
2022/04/26 05:08:59;;;;;;;6.13;4.90;;;9.80;1.00;;;;;;5113235;28;20164;-72
2022/04/26 05:11:25;;;;;;;8.17;5.10;;;9.70;1.00;;;;;;5093966;28;20174;-72
2022/04/26 05:13:50;;;;;;;7.53;4.83;;;9.70;1.00;;;;;;5112992;28;20221;-71
2022/04/26 05:16:16;;;;;;;6.87;5.10;;;9.70;1.00;;;;;;5113064;28;20626;-72
2022/04/26 05:18:41;;;;;;;5.10;4.67;;;9.70;1.00;;;;;;5112333;28;20167;-72
2022/04/26 05:21:13;;;;;;;8.83;5.07;;;9.60;1.00;;;;;;5113052;28;20236;-72
2022/04/26 05:26:23;;;;;;;6.67;5.30;;;9.50;1.00;;;;;;5112384;28;20685;-71
2022/04/26 05:28:49;;;;;;;6.87;5.50;;;9.40;1.00;;;;;;5112212;28;20167;-72
2022/04/26 05:31:15;;;;;;;9.13;5.60;;;9.30;1.00;;;;;;5111961;28;20225;-71
2022/04/26 05:33:40;;;;;;;6.73;5.93;;;9.10;1.40;;;;;;5112332;28;20178;-70
2022/04/26 05:36:06;;;;;;;6.23;5.63;;;9.10;7.40;;;;;;5112448;28;20510;-71
2022/04/26 05:38:34;;;;;;;6.87;6.27;;;8.60;16.80;;;;;;5111302;28;20203;-71
2022/04/26 05:41:00;;;;;;;8.50;6.47;;;8.60;34.30;;;;;;5111493;28;20700;-72
2022/04/26 05:43:25;;;;;;;8.53;6.27;;;8.60;37.60;;;;;;5112650;28;20190;-72
2022/04/26 05:45:51;;;;;;;8.80;6.60;;;8.60;44.20;;;;;;5112210;28;20279;-72
2022/04/26 05:48:17;;;;;;;9.17;6.33;;;8.70;45.00;;;;;;5111464;28;20574;-72
2022/04/26 05:50:43;;;;;;;9.53;7.20;;;8.70;44.30;;;;;;5111975;28;20174;-72
2022/04/26 05:53:09;;;;;;;9.13;7.27;;;8.70;47.80;;;;;;5111314;28;20167;-71
2022/04/26 05:55:34;;;;;;;8.57;7.07;;;8.70;54.70;;;;;;5111302;28;20621;-71
2022/04/26 05:58:02;;;;;;;8.93;6.77;;;8.80;57.70;;;;;;5111568;28;20268;-72
2022/04/26 06:00:28;;;;;;;9.20;7.20;;;8.90;53.50;;;;;;5111611;28;20179;-72
2022/04/26 06:02:53;;;;;;;7.83;6.30;;;9.00;51.10;;;;;;5111289;28;20687;-72
2022/04/26 06:05:20;;;;;;;7.80;6.30;;;9.10;47.10;;;;;;5111834;28;20294;-73
2022/04/26 06:07:46;;;;;;;8.50;6.40;;;9.10;33.40;;;;;;5111271;28;20262;-72
2022/04/26 06:10:12;;;;;;;8.83;6.60;;;9.10;39.30;;;;;;5111469;28;20532;-71
2022/04/26 06:12:39;;;;;;;7.27;6.57;;;9.20;32.60;;;;;;5112079;28;20278;-71
2022/04/26 06:15:05;;;;;;;8.03;6.97;;;9.30;34.10;;;;;;5111097;28;20262;-71
2022/04/26 06:17:32;;;;;;;7.53;6.53;;;9.50;33.60;;;;;;5111513;28;20289;-72
2022/04/26 06:19:58;;;;;;;7.37;6.27;;;9.60;24.40;;;;;;5112311;28;20235;-72
2022/04/26 06:22:24;;;;;;;11.43;6.40;;;9.60;17.60;;;;;;5111019;28;20211;-72
2022/04/26 06:24:51;;;;;;;8.47;6.40;;;9.70;8.00;;;;;;5111271;28;20215;-72
2022/04/26 06:27:17;;;;;;;8.67;6.20;;;10.00;11.00;;;;;;5111850;28;20163;-72
2022/04/26 06:29:43;;;;;;;6.77;6.00;;;10.10;1.00;;;;;;5111150;28;20618;-72
2022/04/26 06:32:09;;;;;;;7.23;5.83;;;10.20;1.00;;;;;;5111163;28;20175;-71
2022/04/26 06:34:34;;;;;;;7.50;6.57;;;10.50;1.00;;;;;;5115124;28;20199;-72
2022/04/26 06:37:00;;;;;;;6.53;5.73;;;10.60;1.00;;;;;;5115805;28;20168;-72
2022/04/26 06:39:25;;;;;;;8.67;6.60;;;10.60;1.00;;;;;;5114683;28;20585;-72
2022/04/26 06:41:51;;;;;;;9.67;5.73;;;10.60;1.00;;;;;;5115088;28;20271;-73
2022/04/26 06:44:17;;;;;;;9.83;6.73;;;10.70;1.00;;;;;;5115396;28;20172;-72
2022/04/26 06:46:43;;;;;;;7.03;5.60;;;10.90;1.00;;;;;;5114676;28;20257;-72
2022/04/26 06:49:08;;;;;;;7.17;5.70;;;10.90;1.00;;;;;;5115263;28;20193;-71
2022/04/26 06:51:38;;;;;;;12.07;5.77;;;10.90;1.00;;;;;;5114148;28;20199;-72
2022/04/26 06:54:04;;;;;;;5.40;5.00;;;10.70;1.00;;;;;;5105816;28;20217;-72
2022/04/26 06:56:30;;;;;;;8.47;5.40;;;10.60;1.00;;;;;;5113543;28;20250;-73
2022/04/26 06:58:55;;;;;;;6.30;5.03;;;10.70;1.00;;;;;;5114417;28;20203;-73
2022/04/26 07:01:21;;;;;;;9.63;5.23;;;10.70;1.00;;;;;;5106704;28;20672;-73
2022/04/26 07:03:46;;;;;;;8.37;5.50;;;10.80;1.00;;;;;;5113662;28;20549;-73
2022/04/26 07:06:12;;;;;;;5.87;5.10;;;10.80;1.00;;;;;;5113065;28;20207;-72
2022/04/26 07:08:38;;;;;;;7.37;4.70;;;10.90;1.00;;;;;;5113954;28;20171;-72
2022/04/26 07:11:04;;;;;;;5.40;4.83;;;10.70;1.00;;;;;;5114011;28;20660;-73
2022/04/26 07:13:29;;;;;;;6.37;4.47;;;10.70;1.00;;;;;;5107898;28;20185;-73
2022/04/26 07:15:55;;;;;;;6.70;5.20;;;10.80;1.00;;;;;;5113531;28;20167;-72
2022/04/26 07:18:20;;;;;;;7.63;5.30;;;10.90;1.00;;;;;;5113470;28;20167;-71
2022/04/26 07:20:46;;;;;;;6.80;4.40;;;11.10;1.00;;;;;;5114427;28;20176;-72
2022/04/26 07:23:12;;;;;;;5.27;4.43;;;11.10;1.00;;;;;;5114049;28;20210;-72
2022/04/26 07:25:38;;;;;;;6.27;4.70;;;11.10;1.00;;;;;;5114453;28;20210;-72
2022/04/26 07:28:05;;;;;;;7.37;5.00;;;11.30;1.00;;;;;;5114354;28;20206;-72
2022/04/26 07:30:38;;;;;;;6.60;4.70;;;11.50;1.00;;;;;;5114535;28;20638;-71
2022/04/26 07:35:52;;;;;;;5.17;4.40;;;11.90;99.90;;;;;;5113832;28;20226;-73
2022/04/26 07:38:17;;;;;;;9.87;4.80;;;12.20;1.00;;;;;;5113849;28;20177;-71
2022/04/26 07:40:43;;;;;;;7.73;4.63;;;12.10;1.00;;;;;;5114020;28;20175;-72
2022/04/26 07:43:09;;;;;;;7.27;4.70;;;12.00;1.00;;;;;;5113425;28;20292;-72
2022/04/26 07:45:38;;;;;;;6.73;4.63;;;11.60;4.90;;;;;;5112553;28;20302;-72
2022/04/26 07:48:05;;;;;;;6.37;5.03;;;11.70;99.90;;;;;;5111655;28;20617;-73
2022/04/26 07:50:32;;;;;;;6.33;4.87;;;12.00;99.90;;;;;;5095848;28;20518;-72
2022/04/26 07:53:00;;;;;;;5.13;4.43;;;12.10;99.90;;;;;;5113550;28;20203;-72
2022/04/26 07:55:26;;;;;;;7.00;4.77;;;12.40;1.00;;;;;;5113744;28;20214;-73
2022/04/26 07:57:51;;;;;;;5.37;4.17;;;12.70;99.90;;;;;;5113069;28;20230;-72
2022/04/26 08:00:17;;;;;;;4.90;4.50;;;12.80;29.00;;;;;;5113645;28;20638;-73
2022/04/26 08:02:43;;;;;;;5.90;4.90;;;12.90;99.90;;;;;;5113941;28;20178;-72
2022/04/26 08:05:08;;;;;;;6.37;4.93;;;13.10;1.00;;;;;;5112404;28;20203;-71
2022/04/26 08:07:39;;;;;;;7.33;4.37;;;13.60;1.00;;;;;;5113234;28;20202;-70
2022/04/26 08:10:07;;;;;;;5.67;4.60;;;13.40;1.00;;;;;;5113629;28;20187;-71
2022/04/26 08:12:33;;;;;;;9.20;5.07;;;13.50;99.90;;;;;;5095387;28;20282;-72
2022/04/26 08:14:59;;;;;;;6.20;4.70;;;13.20;14.20;;;;;;5112777;28;20206;-71
2022/04/26 08:17:24;;;;;;;6.90;4.63;;;13.30;99.90;;;;;;5112885;28;20201;-71
2022/04/26 08:19:50;;;;;;;4.67;4.27;;;13.40;99.90;;;;;;5106971;28;20529;-70
2022/04/26 08:22:15;;;;;;;6.07;4.53;;;13.50;74.30;;;;;;5110943;27;20215;-71
2022/04/26 08:27:25;;;;;;;6.83;4.60;;;13.40;1.00;;;;;;5114001;28;20170;-71
2022/04/26 08:29:55;;;;;;;7.50;4.33;;;13.40;99.90;;;;;;5113277;28;20164;-72
2022/04/26 08:32:23;;;;;;;11.03;7.73;;;14.10;1.00;;;;;;5112674;28;20179;-71
2022/04/26 08:34:49;;;;;;;6.20;5.20;;;15.80;9.40;;;;;;5113414;28;20199;-72
2022/04/26 08:37:15;;;;;;;7.27;4.60;;;17.20;1.00;;;;;;5108263;27;20243;-73
2022/04/26 08:39:40;;;;;;;5.90;4.73;;;17.90;99.90;;;;;;5108167;28;20183;-74
2022/04/26 08:42:06;;;;;;;6.50;5.17;;;17.70;99.90;;;;;;5104997;28;20170;-72
2022/04/26 08:44:34;;;;;;;4.57;4.23;;;17.90;99.90;;;;;;5110834;28;20178;-72
2022/04/26 08:52:44;;;;;;;8.10;5.23;;;15.40;99.90;;;;;;5112795;28;20186;-72
2022/04/26 08:55:09;;;;;;;4.83;4.43;;;15.80;1.00;;;;;;5106642;28;20171;-72
2022/04/26 08:57:35;;;;;;;6.50;4.60;;;15.90;99.90;;;;;;5112449;28;20218;-71
2022/04/26 09:00:05;;;;;;;6.53;4.60;;;15.50;99.90;;;;;;5112482;28;20171;-72
2022/04/26 09:02:30;;;;;;;5.43;4.53;;;16.10;99.90;;;;;;5112318;28;20221;-70
2022/04/26 09:05:01;;;;;;;5.10;4.50;;;16.30;99.90;;;;;;5112290;28;20224;-72
2022/04/26 09:07:31;;;;;;;5.30;4.70;;;16.70;99.90;;;;;;5112379;28;20195;-74
2022/04/26 09:10:09;;;;;;;7.53;4.73;;;17.50;99.90;;;;;;5112185;28;20159;-73
2022/04/26 09:13:07;;;;;;;8.50;4.97;;;18.00;99.90;;;;;;5112191;28;20171;-73
2022/04/26 09:15:54;;;;;;;6.15;4.20;;;18.20;99.90;;;;;;5112621;28;20239;-75
2022/04/26 09:18:29;;;;;;;5.45;4.45;;;19.80;99.90;;;;;;5111994;28;20205;-75
2022/04/26 09:20:58;;;;;;;4.55;4.03;;;20.80;99.90;;;;;;5095922;28;20171;-74
2022/04/26 09:23:28;;;;;;;6.53;4.10;;;20.20;99.90;;;;;;5111762;28;20163;-72
2022/04/26 09:26:10;;;;;;;6.00;4.07;;;20.70;99.90;;;;;;5110137;28;20210;-74
2022/04/26 09:28:37;;;;;;;4.47;3.85;;;21.60;99.90;;;;;;5112846;28;20217;-73
2022/04/26 09:31:23;;;;;;;6.72;4.85;;;21.60;99.90;;;;;;5112675;28;20203;-74
2022/04/26 09:33:53;;;;;;;5.80;4.18;;;20.20;99.90;;;;;;5112806;28;20191;-75
2022/04/26 09:36:21;;;;;;;5.88;4.07;;;20.90;99.90;;;;;;5111507;28;20530;-75
2022/04/26 09:38:51;;;;;;;9.80;4.15;;;21.40;99.90;;;;;;5112163;28;20163;-73
2022/04/26 09:41:17;;;;;;;8.30;4.65;;;21.50;99.90;;;;;;5112311;28;20202;-73
2022/04/26 09:43:43;;;;;;;6.90;4.05;;;21.70;99.90;;;;;;5112212;28;20171;-74
2022/04/26 09:46:08;;;;;;;4.93;4.07;;;21.50;99.90;;;;;;5112115;28;20194;-74
2022/04/26 09:48:36;;;;;;;5.38;4.47;;;20.90;99.90;;;;;;5112210;28;20170;-75
2022/04/26 09:51:06;;;;;;;9.02;4.30;;;20.40;99.90;;;;;;5111515;28;20540;-75
2022/04/26 09:53:32;;;;;;;5.97;4.07;;;20.80;99.90;;;;;;5110658;28;20175;-74
2022/04/26 09:56:00;;;;;;;5.45;4.50;;;20.30;99.90;;;;;;5112100;28;20170;-75
2022/04/26 09:58:28;;;;;;;7.10;4.90;;;19.50;99.90;;;;;;5112124;28;20248;-75
2022/04/26 10:00:56;;;;;;;6.82;4.05;;;19.80;99.90;;;;;;5111312;28;20175;-77
2022/04/26 10:03:31;;;;;;;4.30;3.90;;;21.20;99.90;;;;;;5112955;28;20181;-75
2022/04/26 10:06:02;;;;;;;5.13;4.13;;;22.10;99.90;;;;;;5111132;28;20246;-74
2022/04/26 10:08:30;;;;;;;4.25;3.95;;;22.90;99.90;;;;;;5114732;28;20194;-75
2022/04/26 10:10:57;;;;;;;4.38;3.70;;;22.70;99.90;;;;;;5116412;28;20246;-75
2022/04/26 10:13:35;;;;;;;5.55;4.22;;;21.10;99.90;;;;;;5114675;28;20171;-77
2022/04/26 10:16:11;;;;;;;6.63;4.15;;;21.60;99.90;;;;;;5115151;28;20208;-77
2022/04/26 10:18:39;;;;;;;5.10;4.60;;;21.60;99.90;;;;;;5116668;28;20220;-76
2022/04/26 10:21:06;;;;;;;6.30;5.00;;;21.80;99.90;;;;;;5114626;28;20175;-77
2022/04/26 10:23:50;;;;;;;6.18;4.50;;;22.00;99.90;;;;;;5116482;28;20203;-77
2022/04/26 10:26:22;;;;;;;7.10;5.10;;;22.40;99.90;;;;;;5116107;28;20210;-78
2022/04/26 10:28:59;;;;;;;5.90;5.05;;;22.80;99.90;;;;;;5115859;28;20171;-76
2022/04/26 10:31:37;;;;;;;5.90;4.38;;;23.10;99.90;;;;;;5115636;28;20630;-76
2022/04/26 10:34:18;;;;;;;5.03;4.50;;;23.50;99.90;;;;;;5113161;28;20418;-75
2022/04/26 10:36:44;;;;;;;5.45;4.22;;;21.70;99.90;;;;;;5115259;28;20190;-75
2022/04/26 10:39:12;;;;;;;4.78;4.32;;;22.50;99.90;;;;;;5115588;28;20255;-73
2022/04/26 10:41:40;;;;;;;4.43;4.03;;;21.90;99.90;;;;;;5115567;28;20251;-74
2022/04/26 10:44:22;;;;;;;6.15;4.80;;;20.70;99.90;;;;;;5115369;28;20209;-74
2022/04/26 10:46:55;;;;;;;5.65;4.55;;;19.60;99.90;;;;;;5114289;28;20199;-73
2022/04/26 10:49:24;;;;;;;6.15;4.53;;;19.30;99.90;;;;;;5114845;28;20159;-75
2022/04/26 10:51:53;;;;;;;8.80;4.40;;;20.40;99.90;;;;;;5115533;28;20213;-75
2022/04/26 10:54:46;;;;;;;5.25;4.57;;;21.30;99.90;;;;;;5115800;28;20165;-75
2022/04/26 10:57:13;;;;;;;6.57;4.57;;;21.30;99.90;;;;;;5114482;28;20261;-74
2022/04/26 10:59:47;;;;;;;5.35;4.40;;;20.80;99.90;;;;;;5114509;28;20160;-73
2022/04/26 11:02:15;;;;;;;9.23;4.38;;;20.80;99.90;;;;;;5115142;28;20212;-75
2022/04/26 11:04:40;;;;;;;9.68;4.50;;;21.40;99.90;;;;;;5113644;28;20183;-75
2022/04/26 11:07:21;;;;;;;7.13;4.60;;;21.30;99.90;;;;;;5112208;28;20205;-76
2022/04/26 11:09:50;;;;;;;10.32;5.07;;;21.80;99.90;;;;;;5114819;28;20174;-77
2022/04/26 11:12:24;;;;;;;8.93;4.75;;;21.90;99.90;;;;;;5114827;28;20168;-75
2022/04/26 11:14:51;;;;;;;8.00;5.70;;;21.80;99.90;;;;;;5115302;28;20190;-73
2022/04/26 11:17:19;;;;;;;6.20;4.35;;;22.20;99.90;;;;;;5114112;28;20215;-76
2022/04/26 11:19:51;;;;;;;6.97;4.50;;;22.40;99.90;;;;;;5113464;28;20175;-73
2022/04/26 11:22:18;;;;;;;5.03;4.55;;;20.20;99.90;;;;;;5115146;28;20262;-73
2022/04/26 11:30:39;;;;;;;5.40;4.32;;;18.40;99.90;;;;;;5115227;28;20629;-74
2022/04/26 11:33:09;;;;;;;9.38;4.22;;;18.60;99.90;;;;;;5114057;28;20182;-73
2022/04/26 11:35:38;;;;;;;7.10;4.53;;;19.10;99.90;;;;;;5113389;28;20191;-74
2022/04/26 11:38:13;;;;;;;6.30;4.28;;;19.90;99.90;;;;;;5114192;28;20471;-73
2022/04/26 11:40:41;;;;;;;7.50;4.22;;;20.10;99.90;;;;;;5115107;28;20167;-71
2022/04/26 11:43:15;;;;;;;6.55;4.50;;;20.70;99.90;;;;;;5111982;28;20300;-73
2022/04/26 11:45:47;;;;;;;6.28;4.28;;;21.20;99.90;;;;;;5101495;28;20615;-72
2022/04/26 11:48:36;;;;;;;7.75;4.43;;;21.40;99.90;;;;;;5107409;28;20262;-74
2022/04/26 11:51:03;;;;;;;5.78;3.80;;;21.80;99.90;;;;;;5102614;28;20740;-74
2022/04/26 11:53:30;;;;;;;5.15;4.25;;;22.20;99.90;;;;;;5111957;28;20171;-73
2022/04/26 11:56:01;;;;;;;6.03;3.92;;;22.10;99.90;;;;;;5111905;28;20635;-73
2022/04/26 11:58:27;;;;;;;12.80;4.82;;;21.80;99.90;;;;;;5112024;28;20268;-73
2022/04/26 12:01:03;;;;;;;8.15;4.32;;;21.40;99.90;;;;;;5108173;27;20176;-73
2022/04/26 12:03:40;;;;;;;4.25;3.85;;;21.10;99.90;;;;;;5110843;28;20167;-72
2022/04/26 12:06:07;;;;;;;4.70;4.28;;;20.20;99.90;;;;;;5112631;28;20191;-74
2022/04/26 12:08:45;;;;;;;5.72;4.53;;;20.10;99.90;;;;;;5111682;28;20183;-71
2022/04/26 12:11:32;;;;;;;5.25;4.45;;;19.00;99.90;;;;;;5101162;28;20590;-72
2022/04/26 12:13:59;;;;;;;5.55;4.60;;;17.50;99.90;;;;;;5112670;28;20521;-70
2022/04/26 12:16:25;;;;;;;5.20;4.80;;;17.30;99.90;;;;;;5112541;28;20637;-71
2022/04/26 12:18:56;;;;;;;5.50;4.80;;;17.20;99.90;;;;;;5111574;28;20179;-71
2022/04/26 12:21:23;;;;;;;5.40;4.90;;;17.40;99.90;;;;;;5094529;28;20206;-70
2022/04/26 12:24:13;;;;;;;8.70;6.15;;;18.10;99.90;;;;;;5110146;28;20182;-70
2022/04/26 12:27:05;;;;;;;5.18;4.60;;;18.50;99.90;;;;;;5110748;28;20214;-72
2022/04/26 12:29:36;;;;;;;5.43;4.70;;;18.50;99.90;;;;;;5108587;28;20183;-71
2022/04/26 12:32:08;;;;;;;6.78;4.78;;;18.30;99.90;;;;;;5107536;28;20168;-73
2022/04/26 12:34:34;;;;;;;9.23;5.35;;;17.00;99.90;;;;;;5110689;28;20226;-72
2022/04/26 12:37:04;;;;;;;5.93;5.20;;;17.30;99.90;;;;;;5109740;28;20232;-70
2022/04/26 12:39:38;;;;;;;7.63;6.03;;;16.90;99.90;;;;;;5100418;27;20267;-71
2022/04/26 12:42:05;;;;;;;12.63;6.07;;;17.40;99.90;;;;;;5109034;28;20202;-71
2022/04/26 12:44:30;;;;;;;9.85;5.72;;;17.80;99.90;;;;;;5107612;28;20266;-71
2022/04/26 12:52:45;;;;;;;5.63;4.97;;;18.10;99.90;;;;;;5111132;28;20260;-70
2022/04/26 12:55:11;;;;;;;6.75;6.03;;;17.60;99.90;;;;;;5109161;28;20172;-70
2022/04/26 12:57:51;;;;;;;8.13;6.13;;;17.60;99.90;;;;;;5110349;28;20317;-70
2022/04/26 13:00:21;;;;;;;7.40;5.27;;;17.50;99.90;;;;;;5110212;28;20630;-72
2022/04/26 13:02:48;;;;;;;6.10;5.30;;;17.30;99.90;;;;;;5108637;28;20194;-70
2022/04/26 13:05:15;;;;;;;5.87;5.13;;;17.20;99.90;;;;;;5111523;28;20297;-70
2022/04/26 13:07:41;;;;;;;10.57;5.83;;;17.30;99.90;;;;;;5111431;28;20202;-69
2022/04/26 13:10:07;;;;;;;6.93;6.07;;;17.10;99.90;;;;;;5109829;28;20274;-70
2022/04/26 13:12:32;;;;;;;8.87;5.93;;;17.00;99.90;;;;;;5112485;28;20203;-71
2022/04/26 13:15:01;;;;;;;7.93;6.43;;;17.00;99.90;;;;;;5110296;28;20171;-71
2022/04/26 13:17:27;;;;;;;7.10;6.10;;;16.20;99.90;;;;;;5111697;28;20206;-72
2022/04/26 13:19:55;;;;;;;7.30;6.60;;;16.40;99.90;;;;;;5111120;28;20206;-70
2022/04/26 13:22:22;;;;;;;9.00;6.30;;;16.40;99.90;;;;;;5110795;28;20558;-72
2022/04/26 13:24:49;;;;;;;7.33;6.60;;;16.30;99.90;;;;;;5099563;28;20549;-72
2022/04/26 13:27:16;;;;;;;7.43;6.07;;;16.40;99.90;;;;;;5109782;28;20187;-71
2022/04/26 13:29:41;;;;;;;7.23;6.40;;;16.40;99.90;;;;;;5109884;28;20183;-71
2022/04/26 13:32:07;;;;;;;6.40;5.87;;;16.60;99.90;;;;;;5108575;28;20186;-70
2022/04/26 13:34:33;;;;;;;7.77;5.80;;;16.80;99.90;;;;;;5108931;28;20210;-71
2022/04/26 13:36:59;;;;;;;6.93;6.33;;;16.30;99.90;;;;;;5106889;28;20183;-71
2022/04/26 13:39:24;;;;;;;6.77;6.00;;;16.90;99.90;;;;;;5109945;28;20175;-69
2022/04/26 13:41:50;;;;;;;6.83;6.17;;;17.60;99.90;;;;;;5103479;28;20206;-70
2022/04/26 13:44:20;;;;;;;6.80;6.10;;;18.10;99.90;;;;;;5105612;28;20207;-72
2022/04/26 13:46:46;;;;;;;7.50;5.90;;;18.00;99.90;;;;;;5110657;28;20202;-70
2022/04/26 13:49:12;;;;;;;9.30;6.18;;;18.10;99.90;;;;;;5091195;28;20573;-70
2022/04/26 13:51:38;;;;;;;7.90;5.90;;;18.40;99.90;;;;;;5110770;28;20261;-71
2022/04/26 13:54:04;;;;;;;9.75;5.60;;;18.50;99.90;;;;;;5102811;28;20263;-72
2022/04/26 13:56:29;;;;;;;7.05;5.55;;;18.50;99.90;;;;;;5104742;28;20218;-71
2022/04/26 13:58:55;;;;;;;8.98;6.00;;;18.70;99.90;;;;;;5104235;28;20183;-72
2022/04/26 14:01:22;;;;;;;9.98;5.90;;;18.40;99.90;;;;;;5109721;28;20519;-71
2022/04/26 14:03:49;;;;;;;6.40;5.47;;;18.30;99.90;;;;;;5107722;28;20240;-73
2022/04/26 14:06:18;;;;;;;9.90;6.15;;;18.00;99.90;;;;;;5092585;28;20568;-71
2022/04/26 14:08:48;;;;;;;8.23;5.72;;;18.30;99.90;;;;;;5108912;28;20171;-72
2022/04/26 14:11:17;;;;;;;9.88;5.45;;;18.60;99.90;;;;;;5104940;28;20266;-72
2022/04/26 14:21:56;;;;;;;7.57;5.45;;;18.80;99.90;;;;;;5111103;28;20210;-72
2022/04/26 14:24:22;;;;;;;6.80;5.55;;;18.70;99.90;;;;;;5108573;28;20179;-71
2022/04/26 14:26:49;;;;;;;8.05;5.85;;;18.20;99.90;;;;;;5109374;28;20268;-74
2022/04/26 14:29:15;;;;;;;9.63;5.75;;;18.30;99.90;;;;;;5109563;28;20236;-69
2022/04/26 14:31:41;;;;;;;5.88;5.35;;;18.30;99.90;;;;;;5108435;28;20831;-69
2022/04/26 14:34:08;;;;;;;6.90;6.10;;;18.10;99.90;;;;;;5108738;28;20202;-72
2022/04/26 14:36:34;;;;;;;7.18;5.50;;;18.20;99.90;;;;;;5109018;28;20183;-74
2022/04/26 14:38:59;;;;;;;7.07;5.60;;;17.80;99.90;;;;;;5108478;28;20182;-73
2022/04/26 14:41:26;;;;;;;6.82;5.70;;;17.70;99.90;;;;;;5110200;28;20506;-72
2022/04/26 14:43:55;;;;;;;6.88;5.45;;;17.80;99.90;;;;;;5111591;28;20250;-72
2022/04/26 14:46:20;;;;;;;6.17;5.50;;;17.80;99.90;;;;;;5110451;28;20282;-73
2022/04/26 14:48:46;;;;;;;10.00;6.43;;;17.40;99.90;;;;;;5111395;28;20641;-72
2022/04/26 14:51:12;;;;;;;9.40;5.70;;;17.30;99.90;;;;;;5110612;28;20263;-74
2022/04/26 14:53:38;;;;;;;8.75;6.38;;;17.40;99.90;;;;;;5112452;28;20167;-72
2022/04/26 14:56:05;;;;;;;10.27;6.70;;;17.40;99.90;;;;;;5114801;28;20320;-72
2022/04/26 14:58:33;;;;;;;6.83;5.87;;;17.60;99.90;;;;;;5113124;28;20223;-72
2022/04/26 15:00:59;;;;;;;12.43;6.80;;;17.70;99.90;;;;;;5113984;28;20201;-72
2022/04/26 15:03:24;;;;;;;7.63;6.27;;;17.80;99.90;;;;;;5114969;28;20167;-72
2022/04/26 15:05:50;;;;;;;7.90;6.43;;;17.40;99.90;;;;;;5112831;28;20691;-72
2022/04/26 15:11:00;;;;;;;10.23;5.83;;;17.20;99.90;;;;;;5114865;28;20182;-72
2022/04/26 15:18:54;;;;;;;8.47;6.13;;;17.10;99.90;;;;;;5114949;28;20244;-73
2022/04/26 15:21:19;;;;;;;8.57;6.40;;;16.90;99.90;;;;;;5114719;28;20171;-73
2022/04/26 15:23:45;;;;;;;11.43;6.43;;;16.70;99.90;;;;;;5114898;28;20649;-72
2022/04/26 15:26:12;;;;;;;8.87;5.63;;;16.90;99.90;;;;;;5113495;28;20297;-72
2022/04/26 15:28:38;;;;;;;9.43;6.07;;;16.70;99.90;;;;;;5115001;28;20269;-72
2022/04/26 15:31:05;;;;;;;7.93;5.50;;;16.80;99.90;;;;;;5114051;28;20175;-73
2022/04/26 15:33:31;;;;;;;6.93;5.63;;;17.00;99.90;;;;;;5114596;28;20202;-72
2022/04/26 15:35:57;;;;;;;6.77;6.07;;;17.00;99.90;;;;;;5113639;28;20178;-72
2022/04/26 15:38:27;;;;;;;7.80;6.50;;;17.00;99.90;;;;;;5114254;28;20202;-73
2022/04/26 15:40:54;;;;;;;10.10;5.97;;;16.90;99.90;;;;;;5114152;28;20202;-72
2022/04/26 15:43:20;;;;;;;10.40;6.17;;;16.70;99.90;;;;;;5114581;28;20176;-72
2022/04/26 15:45:45;;;;;;;12.23;5.30;;;16.70;99.90;;;;;;5113742;28;20610;-72
2022/04/26 15:48:12;;;;;;;6.30;5.70;;;16.70;99.90;;;;;;5113954;28;20245;-72
2022/04/26 15:50:41;;;;;;;9.57;5.87;;;16.90;99.90;;;;;;5113748;28;20179;-73
2022/04/26 15:53:07;;;;;;;6.40;5.70;;;16.80;99.90;;;;;;5113857;28;20278;-73
2022/04/26 15:55:34;;;;;;;7.13;5.37;;;16.70;99.90;;;;;;5113103;28;20193;-72
2022/04/26 15:58:00;;;;;;;9.27;5.20;;;16.80;99.90;;;;;;5113962;28;20219;-72
2022/04/26 16:00:26;;;;;;;6.90;5.53;;;16.80;99.90;;;;;;5113196;28;20171;-74
2022/04/26 16:02:54;;;;;;;8.23;5.20;;;16.70;99.90;;;;;;5113560;28;20169;-73
2022/04/26 16:05:19;;;;;;;8.80;5.40;;;16.40;99.90;;;;;;5112173;28;20285;-72
2022/04/26 16:07:45;;;;;;;7.07;5.10;;;16.40;99.90;;;;;;5114184;28;20662;-72
2022/04/26 16:21:09;;;;;;;6.00;5.40;;;16.10;99.90;;;;;;5114010;28;20183;-72
2022/04/26 16:23:35;;;;;;;7.93;5.67;;;16.20;99.90;;;;;;5113796;28;20172;-71
2022/04/26 16:26:06;;;;;;;7.57;5.03;;;16.30;99.90;;;;;;5113365;28;20210;-72
2022/04/26 16:28:33;;;;;;;7.77;5.87;;;16.30;99.90;;;;;;5113804;28;20256;-72
2022/04/26 16:30:59;;;;;;;6.27;5.43;;;16.20;99.90;;;;;;5112866;28;20574;-72
2022/04/26 16:33:25;;;;;;;6.90;5.47;;;16.10;99.90;;;;;;5112950;28;20230;-73
2022/04/26 16:35:51;;;;;;;7.10;5.60;;;15.90;99.90;;;;;;5112684;28;20178;-72
2022/04/26 16:38:17;;;;;;;7.97;5.70;;;16.10;99.90;;;;;;5113721;28;20194;-72
2022/04/26 16:40:45;;;;;;;6.93;5.47;;;16.00;99.90;;;;;;5113534;28;20603;-72
2022/04/26 16:43:11;;;;;;;5.63;5.10;;;15.90;99.90;;;;;;5113576;28;20220;-70
2022/04/26 16:45:36;;;;;;;7.03;5.40;;;15.70;99.90;;;;;;5112257;28;20253;-71
2022/04/26 16:48:02;;;;;;;12.13;5.47;;;15.50;99.90;;;;;;5112213;28;20629;-73
2022/04/26 16:50:28;;;;;;;5.90;5.30;;;15.40;99.90;;;;;;5113014;28;20269;-73
2022/04/26 16:52:54;;;;;;;8.60;5.23;;;15.40;99.90;;;;;;5113135;28;20174;-71
2022/04/26 16:55:21;;;;;;;9.17;5.30;;;15.30;99.90;;;;;;5113589;28;20618;-71
2022/04/26 16:57:47;;;;;;;7.23;5.37;;;15.10;99.90;;;;;;5112496;28;20349;-71
2022/04/26 17:00:15;;;;;;;11.57;5.70;;;14.70;99.90;;;;;;5112292;28;20171;-72
2022/04/26 17:02:41;;;;;;;7.13;5.50;;;14.60;99.90;;;;;;5113061;28;20175;-72
2022/04/26 17:05:07;;;;;;;11.10;5.37;;;14.50;1.00;;;;;;5113123;28;20175;-72
2022/04/26 17:07:33;;;;;;;7.73;5.10;;;14.40;1.00;;;;;;5112706;28;20533;-72
2022/04/26 17:09:59;;;;;;;7.10;5.80;;;14.30;1.00;;;;;;5112811;28;20179;-73
2022/04/26 17:12:26;;;;;;;5.77;4.97;;;14.20;1.00;;;;;;5111965;28;20179;-72
2022/04/26 17:14:54;;;;;;;8.17;5.57;;;14.10;1.00;;;;;;5112526;28;20167;-72
2022/04/26 17:17:21;;;;;;;8.30;5.80;;;14.10;1.00;;;;;;5112291;28;20252;-71
2022/04/26 17:19:47;;;;;;;6.47;5.00;;;14.00;1.00;;;;;;5113279;28;20175;-71
2022/04/26 17:22:13;;;;;;;7.67;5.93;;;14.00;1.00;;;;;;5112852;28;20228;-72